sensor_id;sensor_type;location;lat;lon;timestamp;pressure;altitude;pressure_sealevel;temperature;humidity
72921;BME280;61064;51.654;5.476;2023-05-29T00:01:28;102316.44;;;13.83;65.88
72921;BME280;61064;51.654;5.476;2023-05-29T00:03:54;102327.03;;;13.75;66.05
72921;BME280;61064;51.654;5.476;2023-05-29T00:06:19;102340.38;;;13.73;66.14
72921;BME280;61064;51.654;5.476;2023-05-29T00:08:51;102310.63;;;13.54;66.06
72921;BME280;61064;51.654;5.476;2023-05-29T00:11:19;102332.03;;;13.55;66.19
72921;BME280;61064;51.654;5.476;2023-05-29T00:13:46;102329.09;;;13.40;65.88
72921;BME280;61064;51.654;5.476;2023-05-29T00:16:18;102347.91;;;13.46;65.90
72921;BME280;61064;51.654;5.476;2023-05-29T00:18:44;102338.59;;;13.24;65.80
72921;BME280;61064;51.654;5.476;2023-05-29T00:21:12;102351.22;;;13.33;65.91
72921;BME280;61064;51.654;5.476;2023-05-29T00:23:52;102338.47;;;13.18;65.99
72921;BME280;61064;51.654;5.476;2023-05-29T00:26:17;102345.66;;;13.22;65.92
72921;BME280;61064;51.654;5.476;2023-05-29T00:28:43;102360.84;;;13.23;65.58
72921;BME280;61064;51.654;5.476;2023-05-29T00:31:08;102359.00;;;13.19;65.53
72921;BME280;61064;51.654;5.476;2023-05-29T00:33:34;102367.88;;;13.18;65.54
72921;BME280;61064;51.654;5.476;2023-05-29T00:35:59;102356.97;;;13.11;65.42
72921;BME280;61064;51.654;5.476;2023-05-29T00:38:25;102361.28;;;13.04;65.41
72921;BME280;61064;51.654;5.476;2023-05-29T00:40:50;102364.81;;;13.02;65.52
72921;BME280;61064;51.654;5.476;2023-05-29T00:43:16;102364.72;;;12.97;65.56
72921;BME280;61064;51.654;5.476;2023-05-29T00:45:41;102366.50;;;12.97;65.41
72921;BME280;61064;51.654;5.476;2023-05-29T00:48:07;102362.84;;;12.93;65.16
72921;BME280;61064;51.654;5.476;2023-05-29T00:50:36;102368.09;;;12.87;65.33
72921;BME280;61064;51.654;5.476;2023-05-29T00:53:03;102372.38;;;12.80;65.41
72921;BME280;61064;51.654;5.476;2023-05-29T00:55:30;102381.19;;;12.76;65.50
72921;BME280;61064;51.654;5.476;2023-05-29T00:57:56;102385.59;;;12.74;65.66
72921;BME280;61064;51.654;5.476;2023-05-29T01:00:22;102393.53;;;12.70;65.77
72921;BME280;61064;51.654;5.476;2023-05-29T01:02:48;102388.06;;;12.65;65.67
72921;BME280;61064;51.654;5.476;2023-05-29T01:05:14;102392.38;;;12.59;65.69
72921;BME280;61064;51.654;5.476;2023-05-29T01:07:41;102395.81;;;12.55;66.01
72921;BME280;61064;51.654;5.476;2023-05-29T01:10:07;102401.16;;;12.55;66.02
72921;BME280;61064;51.654;5.476;2023-05-29T01:15:23;102401.97;;;12.50;66.18
72921;BME280;61064;51.654;5.476;2023-05-29T01:26:20;102402.63;;;12.40;65.98
72921;BME280;61064;51.654;5.476;2023-05-29T01:28:48;102394.53;;;12.37;66.11
72921;BME280;61064;51.654;5.476;2023-05-29T01:31:25;102398.03;;;12.35;66.16
72921;BME280;61064;51.654;5.476;2023-05-29T01:34:12;102398.78;;;12.29;66.04
72921;BME280;61064;51.654;5.476;2023-05-29T01:36:37;102394.25;;;12.25;65.87
72921;BME280;61064;51.654;5.476;2023-05-29T01:39:03;102395.88;;;12.19;66.18
72921;BME280;61064;51.654;5.476;2023-05-29T01:41:31;102391.34;;;12.16;66.46
72921;BME280;61064;51.654;5.476;2023-05-29T01:43:58;102387.72;;;12.13;66.24
72921;BME280;61064;51.654;5.476;2023-05-29T01:46:27;102398.22;;;12.06;66.33
72921;BME280;61064;51.654;5.476;2023-05-29T01:48:53;102392.84;;;12.05;66.49
72921;BME280;61064;51.654;5.476;2023-05-29T01:51:20;102387.44;;;12.02;66.47
72921;BME280;61064;51.654;5.476;2023-05-29T01:53:45;102397.16;;;12.00;66.31
72921;BME280;61064;51.654;5.476;2023-05-29T01:56:13;102396.19;;;11.96;66.45
72921;BME280;61064;51.654;5.476;2023-05-29T01:58:40;102396.25;;;11.98;66.46
72921;BME280;61064;51.654;5.476;2023-05-29T02:01:14;102385.53;;;11.96;66.68
72921;BME280;61064;51.654;5.476;2023-05-29T02:03:40;102388.16;;;11.95;66.50
72921;BME280;61064;51.654;5.476;2023-05-29T02:06:08;102393.41;;;11.92;66.53
72921;BME280;61064;51.654;5.476;2023-05-29T02:08:34;102395.97;;;11.89;66.57
72921;BME280;61064;51.654;5.476;2023-05-29T02:11:02;102389.69;;;11.85;66.87
72921;BME280;61064;51.654;5.476;2023-05-29T02:13:28;102394.09;;;11.85;66.83
72921;BME280;61064;51.654;5.476;2023-05-29T02:15:53;102394.00;;;11.80;66.73
72921;BME280;61064;51.654;5.476;2023-05-29T02:18:19;102393.03;;;11.78;66.76
72921;BME280;61064;51.654;5.476;2023-05-29T02:20:44;102383.22;;;11.76;66.60
72921;BME280;61064;51.654;5.476;2023-05-29T02:23:10;102396.50;;;11.74;66.76
72921;BME280;61064;51.654;5.476;2023-05-29T02:25:36;102391.94;;;11.70;67.06
72921;BME280;61064;51.654;5.476;2023-05-29T02:28:02;102391.75;;;11.64;66.88
72921;BME280;61064;51.654;5.476;2023-05-29T02:30:28;102398.75;;;11.60;66.87
72921;BME280;61064;51.654;5.476;2023-05-29T02:32:54;102405.81;;;11.58;67.15
72921;BME280;61064;51.654;5.476;2023-05-29T02:35:20;102400.22;;;11.49;66.87
72921;BME280;61064;51.654;5.476;2023-05-29T02:37:50;102408.22;;;11.49;67.21
72921;BME280;61064;51.654;5.476;2023-05-29T02:40:19;102409.91;;;11.46;67.32
72921;BME280;61064;51.654;5.476;2023-05-29T02:42:45;102416.94;;;11.42;67.28
72921;BME280;61064;51.654;5.476;2023-05-29T02:45:11;102417.78;;;11.41;67.46
72921;BME280;61064;51.654;5.476;2023-05-29T02:47:37;102413.25;;;11.39;67.46
72921;BME280;61064;51.654;5.476;2023-05-29T02:50:05;102419.38;;;11.35;67.54
72921;BME280;61064;51.654;5.476;2023-05-29T02:52:37;102416.69;;;11.35;67.53
72921;BME280;61064;51.654;5.476;2023-05-29T02:55:03;102425.47;;;11.31;67.61
72921;BME280;61064;51.654;5.476;2023-05-29T02:57:33;102420.88;;;11.26;67.73
72921;BME280;61064;51.654;5.476;2023-05-29T02:59:59;102410.09;;;11.22;67.75
72921;BME280;61064;51.654;5.476;2023-05-29T03:02:26;102419.78;;;11.18;67.92
72921;BME280;61064;51.654;5.476;2023-05-29T03:04:52;102411.78;;;11.18;68.23
72921;BME280;61064;51.654;5.476;2023-05-29T03:07:19;102418.88;;;11.18;68.05
72921;BME280;61064;51.654;5.476;2023-05-29T03:09:44;102411.69;;;11.15;68.33
72921;BME280;61064;51.654;5.476;2023-05-29T03:12:10;102417.00;;;11.15;68.23
72921;BME280;61064;51.654;5.476;2023-05-29T03:14:36;102416.09;;;11.15;68.50
72921;BME280;61064;51.654;5.476;2023-05-29T03:17:29;102412.47;;;11.11;68.61
72921;BME280;61064;51.654;5.476;2023-05-29T03:19:54;102396.97;;;10.98;68.58
72921;BME280;61064;51.654;5.476;2023-05-29T03:22:23;102407.69;;;11.00;68.71
72921;BME280;61064;51.654;5.476;2023-05-29T03:24:49;102415.66;;;11.00;68.78
72921;BME280;61064;51.654;5.476;2023-05-29T03:27:14;102406.75;;;10.98;68.89
72921;BME280;61064;51.654;5.476;2023-05-29T03:29:40;102420.94;;;10.98;68.97
72921;BME280;61064;51.654;5.476;2023-05-29T03:32:08;102433.31;;;10.96;68.97
72921;BME280;61064;51.654;5.476;2023-05-29T03:34:33;102432.41;;;10.96;69.00
72921;BME280;61064;51.654;5.476;2023-05-29T03:36:59;102434.22;;;10.97;69.10
72921;BME280;61064;51.654;5.476;2023-05-29T03:39:27;102433.38;;;10.98;69.20
72921;BME280;61064;51.654;5.476;2023-05-29T03:41:52;102430.59;;;10.95;69.08
72921;BME280;61064;51.654;5.476;2023-05-29T03:44:17;102427.94;;;10.95;69.17
72921;BME280;61064;51.654;5.476;2023-05-29T03:46:43;102427.75;;;10.89;69.19
72921;BME280;61064;51.654;5.476;2023-05-29T03:49:08;102428.59;;;10.86;69.48
72921;BME280;61064;51.654;5.476;2023-05-29T03:51:34;102426.72;;;10.83;69.35
72921;BME280;61064;51.654;5.476;2023-05-29T03:54:00;102439.97;;;10.82;69.56
72921;BME280;61064;51.654;5.476;2023-05-29T03:56:26;102440.69;;;10.76;69.52
72921;BME280;61064;51.654;5.476;2023-05-29T03:58:52;102439.75;;;10.74;69.70
72921;BME280;61064;51.654;5.476;2023-05-29T04:01:17;102446.91;;;10.75;70.00
72921;BME280;61064;51.654;5.476;2023-05-29T04:03:42;102438.00;;;10.75;69.64
72921;BME280;61064;51.654;5.476;2023-05-29T04:06:13;102446.84;;;10.74;69.79
72921;BME280;61064;51.654;5.476;2023-05-29T04:08:41;102456.66;;;10.76;69.92
72921;BME280;61064;51.654;5.476;2023-05-29T04:11:06;102455.66;;;10.73;69.70
72921;BME280;61064;51.654;5.476;2023-05-29T04:13:32;102445.72;;;10.67;70.06
72921;BME280;61064;51.654;5.476;2023-05-29T04:15:57;102467.22;;;10.73;69.99
72921;BME280;61064;51.654;5.476;2023-05-29T04:18:22;102463.75;;;10.76;69.94
72921;BME280;61064;51.654;5.476;2023-05-29T04:20:48;102458.47;;;10.77;70.17
72921;BME280;61064;51.654;5.476;2023-05-29T04:23:13;102452.22;;;10.75;70.04
72921;BME280;61064;51.654;5.476;2023-05-29T04:25:39;102457.50;;;10.74;70.05
72921;BME280;61064;51.654;5.476;2023-05-29T04:28:04;102457.53;;;10.75;70.09
72921;BME280;61064;51.654;5.476;2023-05-29T04:30:30;102464.66;;;10.76;69.90
72921;BME280;61064;51.654;5.476;2023-05-29T04:32:57;102467.31;;;10.76;70.13
72921;BME280;61064;51.654;5.476;2023-05-29T04:35:23;102460.94;;;10.71;69.98
72921;BME280;61064;51.654;5.476;2023-05-29T04:37:48;102458.34;;;10.73;70.23
72921;BME280;61064;51.654;5.476;2023-05-29T04:40:13;102461.78;;;10.70;70.38
72921;BME280;61064;51.654;5.476;2023-05-29T04:42:43;102468.06;;;10.72;70.13
72921;BME280;61064;51.654;5.476;2023-05-29T04:45:10;102472.44;;;10.70;70.25
72921;BME280;61064;51.654;5.476;2023-05-29T04:47:36;102469.84;;;10.72;70.11
72921;BME280;61064;51.654;5.476;2023-05-29T04:50:12;102477.03;;;10.74;70.37
72921;BME280;61064;51.654;5.476;2023-05-29T04:52:38;102468.28;;;10.78;70.16
72921;BME280;61064;51.654;5.476;2023-05-29T04:55:04;102461.19;;;10.79;70.16
72921;BME280;61064;51.654;5.476;2023-05-29T04:57:30;102464.00;;;10.83;70.48
72921;BME280;61064;51.654;5.476;2023-05-29T04:59:55;102469.31;;;10.83;70.16
72921;BME280;61064;51.654;5.476;2023-05-29T05:05:59;102456.13;;;10.87;69.98
72921;BME280;61064;51.654;5.476;2023-05-29T05:08:24;102482.16;;;10.97;69.92
72921;BME280;61064;51.654;5.476;2023-05-29T05:10:50;102478.72;;;11.01;69.97
72921;BME280;61064;51.654;5.476;2023-05-29T05:13:15;102483.34;;;11.06;70.02
72921;BME280;61064;51.654;5.476;2023-05-29T05:15:40;102493.28;;;11.12;69.80
72921;BME280;61064;51.654;5.476;2023-05-29T05:18:06;102496.91;;;11.14;69.88
72921;BME280;61064;51.654;5.476;2023-05-29T05:20:32;102498.81;;;11.18;69.82
72921;BME280;61064;51.654;5.476;2023-05-29T05:22:57;102498.94;;;11.22;69.82
72921;BME280;61064;51.654;5.476;2023-05-29T05:25:22;102503.53;;;11.28;69.85
72921;BME280;61064;51.654;5.476;2023-05-29T05:27:48;102499.19;;;11.32;69.72
72921;BME280;61064;51.654;5.476;2023-05-29T05:30:13;102503.78;;;11.36;69.71
72921;BME280;61064;51.654;5.476;2023-05-29T05:32:38;102509.19;;;11.39;69.71
72921;BME280;61064;51.654;5.476;2023-05-29T05:35:04;102497.84;;;11.46;69.56
72921;BME280;61064;51.654;5.476;2023-05-29T05:37:29;102501.78;;;11.58;69.41
72921;BME280;61064;51.654;5.476;2023-05-29T05:39:55;102505.75;;;11.73;69.34
72921;BME280;61064;51.654;5.476;2023-05-29T05:42:23;102494.47;;;11.81;69.00
72921;BME280;61064;51.654;5.476;2023-05-29T05:44:49;102494.72;;;11.90;68.76
72921;BME280;61064;51.654;5.476;2023-05-29T05:47:14;102504.88;;;12.05;68.52
72921;BME280;61064;51.654;5.476;2023-05-29T05:49:39;102495.38;;;12.15;68.65
72921;BME280;61064;51.654;5.476;2023-05-29T05:52:05;102494.72;;;12.23;68.25
72921;BME280;61064;51.654;5.476;2023-05-29T05:54:31;102502.03;;;12.30;68.24
72921;BME280;61064;51.654;5.476;2023-05-29T05:56:56;102493.25;;;12.36;68.20
72921;BME280;61064;51.654;5.476;2023-05-29T05:59:21;102495.34;;;12.47;67.87
72921;BME280;61064;51.654;5.476;2023-05-29T06:01:46;102491.03;;;12.54;67.88
72921;BME280;61064;51.654;5.476;2023-05-29T06:04:12;102497.53;;;12.65;67.68
72921;BME280;61064;51.654;5.476;2023-05-29T06:06:37;102493.25;;;12.72;67.35
72921;BME280;61064;51.654;5.476;2023-05-29T06:09:02;102502.41;;;12.81;67.16
72921;BME280;61064;51.654;5.476;2023-05-29T06:11:30;102506.09;;;12.86;66.82
72921;BME280;61064;51.654;5.476;2023-05-29T06:13:55;102498.03;;;12.85;66.74
72921;BME280;61064;51.654;5.476;2023-05-29T06:16:20;102493.75;;;12.91;66.71
72921;BME280;61064;51.654;5.476;2023-05-29T06:18:46;102501.16;;;13.05;66.52
72921;BME280;61064;51.654;5.476;2023-05-29T06:21:12;102505.91;;;13.16;65.81
72921;BME280;61064;51.654;5.476;2023-05-29T06:23:37;102513.97;;;13.18;65.73
72921;BME280;61064;51.654;5.476;2023-05-29T06:26:03;102519.34;;;13.19;65.66
72921;BME280;61064;51.654;5.476;2023-05-29T06:28:29;102523.94;;;13.25;65.83
72921;BME280;61064;51.654;5.476;2023-05-29T06:30:58;102517.81;;;13.30;65.41
72921;BME280;61064;51.654;5.476;2023-05-29T06:33:23;102518.03;;;13.41;65.20
72921;BME280;61064;51.654;5.476;2023-05-29T06:35:49;102522.69;;;13.50;64.80
72921;BME280;61064;51.654;5.476;2023-05-29T06:38:14;102515.69;;;13.56;64.78
72921;BME280;61064;51.654;5.476;2023-05-29T06:40:40;102523.06;;;13.68;64.74
72921;BME280;61064;51.654;5.476;2023-05-29T06:43:05;102509.88;;;13.77;64.39
72921;BME280;61064;51.654;5.476;2023-05-29T06:45:31;102513.66;;;13.88;64.15
72921;BME280;61064;51.654;5.476;2023-05-29T06:47:56;102515.66;;;14.00;63.97
72921;BME280;61064;51.654;5.476;2023-05-29T06:50:22;102517.66;;;14.11;63.82
72921;BME280;61064;51.654;5.476;2023-05-29T06:52:47;102520.50;;;14.19;63.21
72921;BME280;61064;51.654;5.476;2023-05-29T06:55:12;102523.25;;;14.24;63.12
72921;BME280;61064;51.654;5.476;2023-05-29T06:57:38;102515.25;;;14.27;63.09
72921;BME280;61064;51.654;5.476;2023-05-29T07:00:05;102518.09;;;14.34;62.71
72921;BME280;61064;51.654;5.476;2023-05-29T07:02:31;102510.19;;;14.40;62.33
72921;BME280;61064;51.654;5.476;2023-05-29T07:04:57;102519.19;;;14.44;62.64
72921;BME280;61064;51.654;5.476;2023-05-29T07:07:22;102512.25;;;14.56;62.33
72921;BME280;61064;51.654;5.476;2023-05-29T07:09:48;102513.41;;;14.71;61.84
72921;BME280;61064;51.654;5.476;2023-05-29T07:12:13;102514.44;;;14.80;61.61
72921;BME280;61064;51.654;5.476;2023-05-29T07:14:38;102514.56;;;14.89;61.42
72921;BME280;61064;51.654;5.476;2023-05-29T07:17:04;102509.41;;;15.02;61.37
72921;BME280;61064;51.654;5.476;2023-05-29T07:19:31;102510.50;;;15.14;61.11
72921;BME280;61064;51.654;5.476;2023-05-29T07:21:57;102503.50;;;15.27;60.75
72921;BME280;61064;51.654;5.476;2023-05-29T07:24:23;102509.97;;;15.41;60.41
72921;BME280;61064;51.654;5.476;2023-05-29T07:26:48;102519.09;;;15.55;59.99
72921;BME280;61064;51.654;5.476;2023-05-29T07:29:14;102511.13;;;15.61;59.62
72921;BME280;61064;51.654;5.476;2023-05-29T07:31:40;102514.78;;;15.66;59.35
72921;BME280;61064;51.654;5.476;2023-05-29T07:34:06;102523.81;;;15.71;59.37
72921;BME280;61064;51.654;5.476;2023-05-29T07:36:31;102524.84;;;15.86;59.21
72921;BME280;61064;51.654;5.476;2023-05-29T07:38:57;102524.06;;;15.96;58.91
72921;BME280;61064;51.654;5.476;2023-05-29T07:41:23;102526.03;;;16.10;58.65
72921;BME280;61064;51.654;5.476;2023-05-29T07:43:49;102526.97;;;16.17;58.23
72921;BME280;61064;51.654;5.476;2023-05-29T07:46:20;102525.19;;;16.17;57.74
72921;BME280;61064;51.654;5.476;2023-05-29T07:48:45;102536.00;;;16.23;57.66
72921;BME280;61064;51.654;5.476;2023-05-29T07:51:12;102529.78;;;16.29;57.63
72921;BME280;61064;51.654;5.476;2023-05-29T07:53:38;102531.69;;;16.38;57.32
72921;BME280;61064;51.654;5.476;2023-05-29T07:56:04;102526.38;;;16.45;57.05
72921;BME280;61064;51.654;5.476;2023-05-29T07:58:29;102525.53;;;16.52;56.92
72921;BME280;61064;51.654;5.476;2023-05-29T08:00:54;102529.22;;;16.59;56.94
72921;BME280;61064;51.654;5.476;2023-05-29T08:03:20;102524.84;;;16.70;56.59
72921;BME280;61064;51.654;5.476;2023-05-29T08:05:46;102532.06;;;16.77;56.09
72921;BME280;61064;51.654;5.476;2023-05-29T08:08:11;102531.22;;;16.86;56.11
72921;BME280;61064;51.654;5.476;2023-05-29T08:10:40;102542.97;;;16.97;55.36
72921;BME280;61064;51.654;5.476;2023-05-29T08:13:05;102548.38;;;17.01;55.24
72921;BME280;61064;51.654;5.476;2023-05-29T08:15:31;102538.53;;;17.07;55.09
72921;BME280;61064;51.654;5.476;2023-05-29T08:17:57;102535.91;;;17.14;55.10
72921;BME280;61064;51.654;5.476;2023-05-29T08:20:22;102540.47;;;17.26;54.92
72921;BME280;61064;51.654;5.476;2023-05-29T08:22:48;102545.00;;;17.33;54.66
72921;BME280;61064;51.654;5.476;2023-05-29T08:25:13;102548.66;;;17.44;54.60
72921;BME280;61064;51.654;5.476;2023-05-29T08:27:39;102543.28;;;17.50;54.05
72921;BME280;61064;51.654;5.476;2023-05-29T08:30:05;102543.31;;;17.56;54.09
72921;BME280;61064;51.654;5.476;2023-05-29T08:32:30;102544.25;;;17.61;53.63
72921;BME280;61064;51.654;5.476;2023-05-29T08:34:56;102540.69;;;17.67;53.50
72921;BME280;61064;51.654;5.476;2023-05-29T08:37:21;102538.97;;;17.76;53.28
72921;BME280;61064;51.654;5.476;2023-05-29T08:39:46;102530.91;;;17.81;52.95
72921;BME280;61064;51.654;5.476;2023-05-29T08:42:21;102545.28;;;17.83;52.87
72921;BME280;61064;51.654;5.476;2023-05-29T08:44:51;102540.81;;;17.93;52.60
72921;BME280;61064;51.654;5.476;2023-05-29T08:47:21;102544.41;;;18.02;52.68
72921;BME280;61064;51.654;5.476;2023-05-29T08:49:53;102545.31;;;18.07;52.19
72921;BME280;61064;51.654;5.476;2023-05-29T08:52:21;102549.88;;;18.20;52.02
72921;BME280;61064;51.654;5.476;2023-05-29T08:54:47;102549.88;;;18.29;51.71
72921;BME280;61064;51.654;5.476;2023-05-29T08:57:13;102553.47;;;18.36;51.53
72921;BME280;61064;51.654;5.476;2023-05-29T08:59:42;102543.63;;;18.44;51.12
72921;BME280;61064;51.654;5.476;2023-05-29T09:02:09;102555.28;;;18.51;51.25
72921;BME280;61064;51.654;5.476;2023-05-29T09:04:35;102547.25;;;18.58;51.22
72921;BME280;61064;51.654;5.476;2023-05-29T09:07:01;102552.66;;;18.72;50.69
72921;BME280;61064;51.654;5.476;2023-05-29T09:09:27;102548.13;;;18.85;50.37
72921;BME280;61064;51.654;5.476;2023-05-29T09:11:53;102550.81;;;18.95;50.04
72921;BME280;61064;51.654;5.476;2023-05-29T09:14:41;102544.53;;;19.05;49.98
72921;BME280;61064;51.654;5.476;2023-05-29T09:17:08;102551.72;;;19.11;49.75
72921;BME280;61064;51.654;5.476;2023-05-29T09:19:35;102535.53;;;19.16;49.42
72921;BME280;61064;51.654;5.476;2023-05-29T09:22:14;102552.59;;;19.19;49.41
72921;BME280;61064;51.654;5.476;2023-05-29T09:24:41;102540.88;;;19.25;49.16
72921;BME280;61064;51.654;5.476;2023-05-29T09:27:08;102539.06;;;19.28;49.14
72921;BME280;61064;51.654;5.476;2023-05-29T09:29:40;102538.19;;;19.32;48.71
72921;BME280;61064;51.654;5.476;2023-05-29T09:32:16;102539.97;;;19.36;48.75
72921;BME280;61064;51.654;5.476;2023-05-29T09:34:43;102532.75;;;19.46;48.77
72921;BME280;61064;51.654;5.476;2023-05-29T09:37:11;102539.94;;;19.53;48.97
72921;BME280;61064;51.654;5.476;2023-05-29T09:39:49;102530.00;;;19.66;48.82
72921;BME280;61064;51.654;5.476;2023-05-29T09:42:16;102532.63;;;19.81;48.79
72921;BME280;61064;51.654;5.476;2023-05-29T09:44:44;102540.63;;;19.99;48.35
72921;BME280;61064;51.654;5.476;2023-05-29T09:47:14;102533.38;;;20.09;48.11
72921;BME280;61064;51.654;5.476;2023-05-29T09:49:41;102518.97;;;20.07;47.54
72921;BME280;61064;51.654;5.476;2023-05-29T09:52:06;102531.56;;;20.11;47.71
72921;BME280;61064;51.654;5.476;2023-05-29T09:54:34;102537.81;;;20.20;47.21
72921;BME280;61064;51.654;5.476;2023-05-29T09:57:00;102535.06;;;20.23;47.18
72921;BME280;61064;51.654;5.476;2023-05-29T09:59:28;102538.66;;;20.25;46.96
72921;BME280;61064;51.654;5.476;2023-05-29T10:02:04;102540.50;;;20.19;46.94
72921;BME280;61064;51.654;5.476;2023-05-29T10:04:33;102532.44;;;20.16;46.85
72921;BME280;61064;51.654;5.476;2023-05-29T10:07:10;102523.44;;;20.17;47.26
72921;BME280;61064;51.654;5.476;2023-05-29T10:09:42;102529.63;;;20.29;46.80
72921;BME280;61064;51.654;5.476;2023-05-29T10:12:11;102529.56;;;20.45;46.48
72921;BME280;61064;51.654;5.476;2023-05-29T10:14:37;102525.78;;;20.62;46.50
72921;BME280;61064;51.654;5.476;2023-05-29T10:17:07;102530.19;;;20.75;46.04
72921;BME280;61064;51.654;5.476;2023-05-29T10:19:36;102523.78;;;20.87;45.85
72921;BME280;61064;51.654;5.476;2023-05-29T10:22:02;102513.81;;;20.94;45.48
72921;BME280;61064;51.654;5.476;2023-05-29T10:24:29;102520.00;;;21.03;45.45
72921;BME280;61064;51.654;5.476;2023-05-29T10:26:58;102516.34;;;21.07;45.15
72921;BME280;61064;51.654;5.476;2023-05-29T10:29:35;102519.06;;;21.09;45.21
72921;BME280;61064;51.654;5.476;2023-05-29T10:32:23;102519.91;;;21.14;45.24
72921;BME280;61064;51.654;5.476;2023-05-29T10:37:42;102524.25;;;21.32;44.75
72921;BME280;61064;51.654;5.476;2023-05-29T10:40:10;102509.81;;;21.33;44.73
72921;BME280;61064;51.654;5.476;2023-05-29T10:42:50;102514.19;;;21.41;44.27
72921;BME280;61064;51.654;5.476;2023-05-29T10:50:51;102503.31;;;21.46;44.00
72921;BME280;61064;51.654;5.476;2023-05-29T10:53:22;102510.56;;;21.45;43.57
72921;BME280;61064;51.654;5.476;2023-05-29T10:55:48;102510.56;;;21.44;43.61
72921;BME280;61064;51.654;5.476;2023-05-29T10:58:18;102517.81;;;21.40;43.84
72921;BME280;61064;51.654;5.476;2023-05-29T11:00:45;102500.72;;;21.38;43.60
72921;BME280;61064;51.654;5.476;2023-05-29T11:03:24;102509.81;;;21.34;43.79
72921;BME280;61064;51.654;5.476;2023-05-29T11:05:59;102515.13;;;21.40;43.45
72921;BME280;61064;51.654;5.476;2023-05-29T11:11:30;102503.28;;;21.50;43.54
72921;BME280;61064;51.654;5.476;2023-05-29T11:14:00;102496.81;;;21.61;43.27
72921;BME280;61064;51.654;5.476;2023-05-29T11:18:54;102502.31;;;21.54;43.17
72921;BME280;61064;51.654;5.476;2023-05-29T11:21:30;102498.66;;;21.58;43.06
72921;BME280;61064;51.654;5.476;2023-05-29T11:23:58;102501.28;;;21.63;42.66
72921;BME280;61064;51.654;5.476;2023-05-29T11:26:26;102489.66;;;21.56;42.61
72921;BME280;61064;51.654;5.476;2023-05-29T11:28:52;102498.66;;;21.57;42.78
72921;BME280;61064;51.654;5.476;2023-05-29T11:31:18;102493.22;;;21.58;42.61
72921;BME280;61064;51.654;5.476;2023-05-29T11:33:50;102481.31;;;21.72;42.35
72921;BME280;61064;51.654;5.476;2023-05-29T11:36:17;102481.06;;;21.90;41.93
72921;BME280;61064;51.654;5.476;2023-05-29T11:38:44;102474.69;;;21.95;41.76
72921;BME280;61064;51.654;5.476;2023-05-29T11:41:10;102486.41;;;21.96;42.21
72921;BME280;61064;51.654;5.476;2023-05-29T11:43:35;102479.06;;;22.06;42.12
72921;BME280;61064;51.654;5.476;2023-05-29T11:46:01;102484.41;;;22.12;41.57
72921;BME280;61064;51.654;5.476;2023-05-29T11:48:26;102486.22;;;22.10;41.32
72921;BME280;61064;51.654;5.476;2023-05-29T11:50:55;102481.78;;;22.04;41.15
72921;BME280;61064;51.654;5.476;2023-05-29T11:53:20;102486.31;;;22.02;41.21
72921;BME280;61064;51.654;5.476;2023-05-29T11:55:46;102482.59;;;22.09;41.16
72921;BME280;61064;51.654;5.476;2023-05-29T11:58:11;102489.56;;;22.28;40.99
72921;BME280;61064;51.654;5.476;2023-05-29T12:00:38;102479.47;;;22.35;40.39
72921;BME280;61064;51.654;5.476;2023-05-29T12:03:05;102481.34;;;22.33;40.06
72921;BME280;61064;51.654;5.476;2023-05-29T12:05:47;102483.06;;;22.37;40.06
72921;BME280;61064;51.654;5.476;2023-05-29T12:08:23;102481.19;;;22.42;39.79
72921;BME280;61064;51.654;5.476;2023-05-29T12:10:50;102485.59;;;22.48;39.71
72921;BME280;61064;51.654;5.476;2023-05-29T12:13:18;102490.03;;;22.52;39.16
72921;BME280;61064;51.654;5.476;2023-05-29T12:15:44;102481.88;;;22.55;39.05
72921;BME280;61064;51.654;5.476;2023-05-29T12:18:10;102482.69;;;22.60;38.59
72921;BME280;61064;51.654;5.476;2023-05-29T12:20:36;102478.06;;;22.65;38.42
72921;BME280;61064;51.654;5.476;2023-05-29T12:23:02;102472.72;;;22.62;38.54
72921;BME280;61064;51.654;5.476;2023-05-29T12:25:28;102473.66;;;22.59;38.35
72921;BME280;61064;51.654;5.476;2023-05-29T12:27:55;102473.84;;;22.47;38.02
72921;BME280;61064;51.654;5.476;2023-05-29T12:30:22;102469.50;;;22.38;38.34
72921;BME280;61064;51.654;5.476;2023-05-29T12:32:49;102471.25;;;22.41;38.44
72921;BME280;61064;51.654;5.476;2023-05-29T12:35:22;102476.66;;;22.43;38.30
72921;BME280;61064;51.654;5.476;2023-05-29T12:38:07;102472.03;;;22.48;38.68
72921;BME280;61064;51.654;5.476;2023-05-29T12:40:35;102480.06;;;22.55;38.17
72921;BME280;61064;51.654;5.476;2023-05-29T12:43:07;102481.97;;;22.49;37.97
72921;BME280;61064;51.654;5.476;2023-05-29T12:45:34;102478.38;;;22.48;38.21
72921;BME280;61064;51.654;5.476;2023-05-29T12:48:04;102477.47;;;22.48;38.11
72921;BME280;61064;51.654;5.476;2023-05-29T12:50:33;102475.63;;;22.50;38.29
72921;BME280;61064;51.654;5.476;2023-05-29T12:53:06;102481.97;;;22.49;38.02
72921;BME280;61064;51.654;5.476;2023-05-29T12:55:34;102480.16;;;22.49;38.03
72921;BME280;61064;51.654;5.476;2023-05-29T12:58:03;102481.06;;;22.50;37.91
72921;BME280;61064;51.654;5.476;2023-05-29T13:00:29;102473.91;;;22.44;38.05
72921;BME280;61064;51.654;5.476;2023-05-29T13:02:55;102473.06;;;22.40;38.08
72921;BME280;61064;51.654;5.476;2023-05-29T13:05:21;102474.00;;;22.39;37.88
72921;BME280;61064;51.654;5.476;2023-05-29T13:07:49;102472.22;;;22.38;37.95
72921;BME280;61064;51.654;5.476;2023-05-29T13:10:14;102467.72;;;22.36;37.73
72921;BME280;61064;51.654;5.476;2023-05-29T13:12:41;102475.78;;;22.40;37.57
72921;BME280;61064;51.654;5.476;2023-05-29T13:15:07;102473.13;;;22.36;37.36
72921;BME280;61064;51.654;5.476;2023-05-29T13:17:32;102470.53;;;22.30;37.55
72921;BME280;61064;51.654;5.476;2023-05-29T13:19:59;102471.31;;;22.38;37.63